createdAt,value
2023-02-09T00:01:27.892Z,32.78
2023-02-09T00:03:55.014Z,28.77
2023-02-09T00:06:23.928Z,37.45
2023-02-09T00:08:51.086Z,37.25
2023-02-09T00:11:19.710Z,40.67
2023-02-09T00:13:46.939Z,36.67
2023-02-09T00:16:14.020Z,36.42
2023-02-09T00:18:41.252Z,32.85
2023-02-09T00:21:09.579Z,31.88
2023-02-09T00:23:38.972Z,31.77
2023-02-09T00:26:07.328Z,29.92
2023-02-09T00:28:34.788Z,29.83
2023-02-09T00:31:06.003Z,29.77
2023-02-09T00:33:33.169Z,31.73
2023-02-09T00:36:00.150Z,29.67
2023-02-09T00:38:27.216Z,29.95
2023-02-09T00:40:55.680Z,30.90
2023-02-09T00:43:22.631Z,30.80
2023-02-09T00:45:49.630Z,34.03
2023-02-09T00:48:16.669Z,29.20
2023-02-09T00:50:44.229Z,29.92
2023-02-09T00:53:11.387Z,29.40
2023-02-09T00:55:38.541Z,28.40
2023-02-09T00:58:07.028Z,28.30
2023-02-09T01:00:34.484Z,29.57
2023-02-09T01:03:01.904Z,24.45
2023-02-09T01:05:29.001Z,24.73
2023-02-09T01:07:56.274Z,23.77
2023-02-09T01:10:24.066Z,23.42
2023-02-09T01:12:51.113Z,22.10
2023-02-09T01:15:19.606Z,24.75
2023-02-09T01:17:46.747Z,27.33
2023-02-09T01:20:14.121Z,27.77
2023-02-09T01:22:41.396Z,29.58
2023-02-09T01:25:08.518Z,29.63
2023-02-09T01:27:35.978Z,38.35
2023-02-09T01:30:03.785Z,24.13
2023-02-09T01:32:32.487Z,26.95
2023-02-09T01:34:59.489Z,32.00
2023-02-09T01:37:26.530Z,27.73
2023-02-09T01:39:54.405Z,38.00
2023-02-09T01:42:21.549Z,41.22
2023-02-09T01:45:15.405Z,28.15
2023-02-09T01:47:44.687Z,27.42
2023-02-09T01:50:13.291Z,25.60
2023-02-09T01:52:42.602Z,25.33
2023-02-09T01:55:12.057Z,28.02
2023-02-09T01:57:40.104Z,29.25
2023-02-09T02:00:11.311Z,25.38
2023-02-09T02:02:46.256Z,26.40
2023-02-09T02:05:13.848Z,24.02
2023-02-09T02:07:42.237Z,19.15
2023-02-09T02:10:09.415Z,22.88
2023-02-09T02:12:40.776Z,22.08
2023-02-09T02:15:08.232Z,21.43
2023-02-09T02:17:42.526Z,28.60
2023-02-09T02:20:33.486Z,27.27
2023-02-09T02:23:05.207Z,26.27
2023-02-09T02:25:50.816Z,28.98
2023-02-09T02:28:28.019Z,25.90
2023-02-09T02:31:00.805Z,23.70
2023-02-09T02:33:33.236Z,24.73
2023-02-09T02:36:02.087Z,29.27
2023-02-09T02:38:33.606Z,24.92
2023-02-09T02:41:07.123Z,31.90
2023-02-09T02:43:38.677Z,23.13
2023-02-09T02:46:09.979Z,25.08
2023-02-09T02:48:41.207Z,25.60
2023-02-09T02:51:11.938Z,24.88
2023-02-09T02:53:40.968Z,462.33
2023-02-09T02:56:09.962Z,676.85
2023-02-09T02:58:39.161Z,76.22
2023-02-09T03:01:07.772Z,21.92
2023-02-09T03:03:35.741Z,24.67
2023-02-09T03:06:05.663Z,23.67
2023-02-09T03:08:45.577Z,22.45
2023-02-09T03:11:12.747Z,23.38
2023-02-09T03:13:48.098Z,28.65
2023-02-09T03:16:28.344Z,30.48
2023-02-09T03:19:03.236Z,27.73
2023-02-09T03:21:36.593Z,26.73
2023-02-09T03:24:04.987Z,26.13
2023-02-09T03:26:35.255Z,26.65
2023-02-09T03:29:02.479Z,26.55
2023-02-09T03:31:30.517Z,23.47
2023-02-09T03:33:58.160Z,22.20
2023-02-09T03:36:25.967Z,22.67
2023-02-09T03:38:54.431Z,23.83
2023-02-09T03:41:21.467Z,25.08
2023-02-09T03:44:08.746Z,25.37
2023-02-09T03:46:35.879Z,28.73
2023-02-09T03:49:02.935Z,27.33
2023-02-09T03:51:30.049Z,24.50
2023-02-09T03:53:58.613Z,27.40
2023-02-09T03:56:25.583Z,24.60
2023-02-09T03:58:52.985Z,27.75
2023-02-09T04:01:20.146Z,60.10
2023-02-09T04:03:47.384Z,33.05
2023-02-09T04:06:14.500Z,90.15
2023-02-09T04:08:43.262Z,31.37
2023-02-09T04:11:12.366Z,21.55
2023-02-09T04:13:39.462Z,27.95
2023-02-09T04:16:06.922Z,25.25
2023-02-09T04:18:33.965Z,25.85
2023-02-09T04:21:01.085Z,27.10
2023-02-09T04:23:28.349Z,26.95
2023-02-09T04:25:55.387Z,27.30
2023-02-09T04:28:23.836Z,25.77
2023-02-09T04:30:52.254Z,27.58
2023-02-09T04:33:19.440Z,29.63
2023-02-09T04:35:46.582Z,30.10
2023-02-09T04:38:13.652Z,24.15
2023-02-09T04:40:41.130Z,27.30
2023-02-09T04:43:08.231Z,23.02
2023-02-09T04:45:37.746Z,28.47
2023-02-09T04:48:05.172Z,20.55
2023-02-09T04:50:33.162Z,23.38
2023-02-09T04:53:00.406Z,27.75
2023-02-09T04:55:27.566Z,27.98
2023-02-09T04:58:13.276Z,27.03
2023-02-09T05:00:43.173Z,65.35
2023-02-09T05:03:10.448Z,56.63
2023-02-09T05:05:40.000Z,35.05
2023-02-09T05:08:07.093Z,33.08
2023-02-09T05:10:36.051Z,24.07
2023-02-09T05:13:03.103Z,28.48
2023-02-09T05:15:30.111Z,29.83
2023-02-09T05:17:58.528Z,31.30
2023-02-09T05:20:25.830Z,29.23
2023-02-09T05:22:53.204Z,32.60
2023-02-09T05:25:20.287Z,31.77
2023-02-09T05:27:47.873Z,30.92
2023-02-09T05:30:19.654Z,45.88
2023-02-09T05:32:47.327Z,39.42
2023-02-09T05:35:15.857Z,33.83
2023-02-09T05:37:42.873Z,42.97
2023-02-09T05:40:10.790Z,40.67
2023-02-09T05:42:41.201Z,39.25
2023-02-09T05:45:08.953Z,38.42
2023-02-09T05:47:36.256Z,34.13
2023-02-09T05:50:03.916Z,36.20
2023-02-09T05:52:32.852Z,43.78
2023-02-09T05:54:59.864Z,50.25
2023-02-09T05:57:27.051Z,47.00
2023-02-09T05:59:54.751Z,49.17
2023-02-09T06:02:21.816Z,41.78
2023-02-09T06:04:49.162Z,44.40
2023-02-09T06:07:16.235Z,58.75
2023-02-09T06:09:46.270Z,58.13
2023-02-09T06:12:13.421Z,55.03
2023-02-09T06:14:40.514Z,61.17
2023-02-09T06:17:07.609Z,68.20
2023-02-09T06:19:35.321Z,77.57
2023-02-09T06:22:02.446Z,137.50
2023-02-09T06:24:29.542Z,82.00
2023-02-09T06:26:58.287Z,73.38
2023-02-09T06:29:25.751Z,74.65
2023-02-09T06:31:53.097Z,80.65
2023-02-09T06:34:20.363Z,73.25
2023-02-09T06:36:47.339Z,69.97
2023-02-09T06:39:14.444Z,72.70
2023-02-09T06:41:42.363Z,77.10
2023-02-09T06:44:12.152Z,75.22
2023-02-09T06:46:39.115Z,67.93
2023-02-09T06:49:06.658Z,73.97
2023-02-09T06:51:49.670Z,76.85
2023-02-09T06:54:17.125Z,66.78
2023-02-09T06:56:51.022Z,46.33
2023-02-09T06:59:19.776Z,54.10
2023-02-09T07:01:49.267Z,55.07
2023-02-09T07:04:16.331Z,54.97
2023-02-09T07:06:43.292Z,55.78
2023-02-09T07:09:10.611Z,61.10
2023-02-09T07:11:37.655Z,60.10
2023-02-09T07:14:05.523Z,62.43
2023-02-09T07:16:33.915Z,69.50
2023-02-09T07:19:01.352Z,65.05
2023-02-09T07:21:28.574Z,70.57
2023-02-09T07:23:55.853Z,75.78
2023-02-09T07:26:22.877Z,87.27
2023-02-09T07:28:49.960Z,71.07
2023-02-09T07:31:17.597Z,71.10
2023-02-09T07:33:47.028Z,78.38
2023-02-09T07:36:44.227Z,94.95
2023-02-09T07:39:12.228Z,74.37
2023-02-09T07:41:39.745Z,77.07
2023-02-09T07:44:06.896Z,81.03
2023-02-09T07:46:34.109Z,110.05
2023-02-09T07:49:02.568Z,94.80
2023-02-09T07:51:30.077Z,105.20
2023-02-09T07:53:59.154Z,69.22
2023-02-09T07:56:26.943Z,65.72
2023-02-09T07:58:54.817Z,61.05
2023-02-09T08:01:22.043Z,60.33
2023-02-09T08:03:50.636Z,60.50
2023-02-09T08:06:30.336Z,50.88
2023-02-09T08:09:04.761Z,53.17
2023-02-09T08:11:34.730Z,59.22
2023-02-09T08:14:03.089Z,59.22
2023-02-09T08:16:31.284Z,66.63
2023-02-09T08:19:00.419Z,53.22
2023-02-09T08:21:30.532Z,60.42
2023-02-09T08:23:58.201Z,60.15
2023-02-09T08:26:25.375Z,56.05
2023-02-09T08:28:53.709Z,53.63
2023-02-09T08:31:40.959Z,55.35
2023-02-09T08:34:08.891Z,51.22
2023-02-09T08:36:37.779Z,62.13
2023-02-09T08:39:08.077Z,53.55
2023-02-09T08:41:35.539Z,41.07
2023-02-09T08:44:03.113Z,39.40
2023-02-09T08:46:30.368Z,41.08
2023-02-09T08:49:00.666Z,38.80
2023-02-09T08:51:27.826Z,37.28
2023-02-09T08:54:01.431Z,41.07
2023-02-09T08:56:28.866Z,53.92
2023-02-09T08:58:56.139Z,52.40
2023-02-09T09:01:23.288Z,46.20
2023-02-09T09:03:52.297Z,52.17
2023-02-09T09:06:19.792Z,46.47
2023-02-09T09:08:47.258Z,46.17
2023-02-09T09:11:15.695Z,41.28
2023-02-09T09:13:42.672Z,38.78
2023-02-09T09:16:14.018Z,39.17
2023-02-09T09:18:44.478Z,31.17
2023-02-09T09:21:12.351Z,37.50
2023-02-09T09:23:39.490Z,30.63
2023-02-09T09:26:06.964Z,34.42
2023-02-09T09:29:24.862Z,30.35
2023-02-09T09:31:55.249Z,33.07
2023-02-09T09:34:22.422Z,32.38
2023-02-09T09:36:49.436Z,33.10
2023-02-09T09:39:16.620Z,34.67
2023-02-09T09:41:45.829Z,35.35
2023-02-09T09:44:14.653Z,32.90
2023-02-09T09:46:43.494Z,30.33
2023-02-09T09:49:18.951Z,28.98
2023-02-09T09:51:47.267Z,34.60
2023-02-09T09:54:16.423Z,31.65
2023-02-09T09:56:43.513Z,35.60
2023-02-09T09:59:15.035Z,29.90
2023-02-09T10:01:42.916Z,29.88
2023-02-09T10:04:12.177Z,26.85
2023-02-09T10:06:41.314Z,28.58
2023-02-09T10:09:15.358Z,23.47
2023-02-09T10:11:44.406Z,29.63
2023-02-09T10:14:11.411Z,27.35
2023-02-09T10:16:38.617Z,31.90
2023-02-09T10:19:06.917Z,25.35
2023-02-09T10:21:35.901Z,23.63
2023-02-09T10:24:14.457Z,24.27
2023-02-09T10:26:43.080Z,23.75
2023-02-09T10:29:22.238Z,22.90
2023-02-09T10:31:51.395Z,24.30
2023-02-09T10:34:20.150Z,22.10
2023-02-09T10:36:48.766Z,27.23
2023-02-09T10:39:19.324Z,25.05
2023-02-09T10:41:48.318Z,23.45
2023-02-09T10:44:17.277Z,24.95
2023-02-09T10:46:44.523Z,25.73
2023-02-09T10:49:26.399Z,25.17
2023-02-09T10:52:16.938Z,24.35
2023-02-09T10:54:49.044Z,24.80
2023-02-09T10:57:23.410Z,21.08
2023-02-09T10:59:54.903Z,25.27
2023-02-09T11:02:35.183Z,24.37
2023-02-09T11:05:02.348Z,21.67
2023-02-09T11:07:32.838Z,27.27
2023-02-09T11:10:02.165Z,25.33
2023-02-09T11:12:29.422Z,24.75
2023-02-09T11:14:56.466Z,24.67
2023-02-09T11:17:25.605Z,21.52
2023-02-09T11:20:05.851Z,22.23
2023-02-09T11:22:42.663Z,26.67
2023-02-09T11:25:17.475Z,22.95
2023-02-09T11:27:55.016Z,20.93
2023-02-09T11:30:30.722Z,23.10
2023-02-09T11:33:02.675Z,20.10
2023-02-09T11:35:37.959Z,17.60
2023-02-09T11:38:07.769Z,18.60
2023-02-09T11:40:38.183Z,18.37
2023-02-09T11:43:10.782Z,17.98
2023-02-09T11:45:40.736Z,20.15
2023-02-09T11:48:10.600Z,20.50
2023-02-09T11:50:41.251Z,16.60
2023-02-09T11:53:14.273Z,21.93
2023-02-09T11:55:45.783Z,28.00
2023-02-09T11:58:19.394Z,25.30
2023-02-09T12:00:57.711Z,22.65
2023-02-09T12:03:28.941Z,20.98
2023-02-09T12:05:56.087Z,19.77
2023-02-09T12:08:29.617Z,17.73
2023-02-09T12:11:07.956Z,18.00
2023-02-09T12:13:40.530Z,21.20
2023-02-09T12:16:13.978Z,21.15
2023-02-09T12:18:41.863Z,20.98
2023-02-09T12:21:09.068Z,19.17
2023-02-09T12:23:36.520Z,19.50
2023-02-09T12:26:24.943Z,18.38
2023-02-09T12:29:03.604Z,15.85
2023-02-09T12:31:31.382Z,16.15
2023-02-09T12:34:23.226Z,55.35
2023-02-09T12:37:19.752Z,18.50
2023-02-09T12:40:18.564Z,18.15
2023-02-09T12:43:03.477Z,18.08
2023-02-09T12:45:32.545Z,20.33
2023-02-09T12:47:59.973Z,15.98
2023-02-09T12:50:35.665Z,16.15
2023-02-09T12:53:36.051Z,18.33
2023-02-09T12:56:05.066Z,19.15
2023-02-09T12:58:54.016Z,14.57
2023-02-09T13:01:22.190Z,17.77
2023-02-09T13:03:53.751Z,16.23
2023-02-09T13:06:27.654Z,15.45
2023-02-09T13:08:55.137Z,16.85
2023-02-09T13:11:26.059Z,18.00
2023-02-09T13:13:56.561Z,18.35
2023-02-09T13:16:44.229Z,15.63
2023-02-09T13:19:15.141Z,15.77
2023-02-09T13:21:48.445Z,26.52
2023-02-09T13:24:16.815Z,19.20
2023-02-09T13:26:49.344Z,21.10
2023-02-09T13:29:21.352Z,23.63
2023-02-09T13:31:56.188Z,17.17
2023-02-09T13:34:27.107Z,16.60
2023-02-09T13:36:57.322Z,17.50
2023-02-09T13:39:49.717Z,17.25
2023-02-09T13:42:18.978Z,17.48
2023-02-09T13:44:50.397Z,16.83
2023-02-09T13:47:17.487Z,17.67
2023-02-09T13:49:55.205Z,20.83
2023-02-09T13:52:23.756Z,17.38
2023-02-09T13:54:50.811Z,18.70
2023-02-09T13:57:25.105Z,20.10
2023-02-09T13:59:53.527Z,18.58
2023-02-09T14:02:21.968Z,19.43
2023-02-09T14:04:50.963Z,20.02
2023-02-09T14:07:18.420Z,22.65
2023-02-09T14:09:47.211Z,18.92
2023-02-09T14:12:16.965Z,20.13
2023-02-09T14:15:06.801Z,18.90
2023-02-09T14:17:35.843Z,20.95
2023-02-09T14:20:03.438Z,16.48
2023-02-09T14:22:32.079Z,17.92
2023-02-09T14:25:06.093Z,14.45
2023-02-09T14:27:34.040Z,16.23
2023-02-09T14:30:01.842Z,17.55
2023-02-09T14:32:33.777Z,22.00
2023-02-09T14:35:16.509Z,21.02
2023-02-09T14:37:44.011Z,17.02
2023-02-09T14:40:20.301Z,18.10
2023-02-09T14:42:57.925Z,22.10
2023-02-09T14:45:29.986Z,24.73
2023-02-09T14:47:57.144Z,19.83
2023-02-09T14:50:25.590Z,17.48
2023-02-09T14:52:54.665Z,18.03
2023-02-09T14:55:23.779Z,22.92
2023-02-09T14:57:50.846Z,20.13
2023-02-09T15:00:20.015Z,24.15
2023-02-09T15:02:47.804Z,19.33
2023-02-09T15:05:15.320Z,19.53
2023-02-09T15:07:44.947Z,17.95
2023-02-09T15:10:19.084Z,17.83
2023-02-09T15:12:46.330Z,19.08
2023-02-09T15:15:15.472Z,22.75
2023-02-09T15:17:42.421Z,22.38
2023-02-09T15:20:10.423Z,18.70
2023-02-09T15:22:37.492Z,23.02
2023-02-09T15:25:06.398Z,21.92
2023-02-09T15:27:34.217Z,24.27
2023-02-09T15:30:04.294Z,22.90
2023-02-09T15:32:31.929Z,25.27
2023-02-09T15:34:59.245Z,22.92
2023-02-09T15:37:27.212Z,22.08
2023-02-09T15:39:55.725Z,24.58
2023-02-09T15:42:42.936Z,26.40
2023-02-09T15:45:40.184Z,26.48
2023-02-09T15:48:08.059Z,21.10
2023-02-09T15:50:35.694Z,22.85
2023-02-09T15:53:04.216Z,22.65
2023-02-09T15:55:31.498Z,24.23
2023-02-09T15:58:00.059Z,22.88
2023-02-09T16:00:28.320Z,30.48
2023-02-09T16:02:56.471Z,36.10
2023-02-09T16:05:25.771Z,37.92
2023-02-09T16:07:53.902Z,41.50
2023-02-09T16:10:22.090Z,45.70
2023-02-09T16:12:49.453Z,40.80
2023-02-09T16:15:18.598Z,39.90
2023-02-09T16:17:45.917Z,39.33
2023-02-09T16:20:13.181Z,38.42
2023-02-09T16:22:41.471Z,35.50
2023-02-09T16:25:16.420Z,33.95
2023-02-09T16:27:43.458Z,31.95
2023-02-09T16:30:15.074Z,34.27
2023-02-09T16:32:47.191Z,35.80
2023-02-09T16:35:17.602Z,36.45
2023-02-09T16:37:45.991Z,40.47
2023-02-09T16:40:20.723Z,38.13
2023-02-09T16:42:48.685Z,42.45
2023-02-09T16:45:16.759Z,47.20
2023-02-09T16:47:45.766Z,49.03
2023-02-09T16:50:23.016Z,58.05
2023-02-09T16:52:51.169Z,53.42
2023-02-09T16:55:23.148Z,58.73
2023-02-09T16:57:54.782Z,52.35
2023-02-09T17:00:23.600Z,41.88
2023-02-09T17:02:52.164Z,45.33
2023-02-09T17:05:21.706Z,44.92
2023-02-09T17:07:55.030Z,48.20
2023-02-09T17:10:23.630Z,46.67
2023-02-09T17:12:52.613Z,38.72
2023-02-09T17:15:30.084Z,42.88
2023-02-09T17:18:01.732Z,45.65
2023-02-09T17:20:32.390Z,45.70
2023-02-09T17:22:59.686Z,48.97
2023-02-09T17:25:26.817Z,48.85
2023-02-09T17:27:54.086Z,51.17
2023-02-09T17:30:21.494Z,49.67
2023-02-09T17:32:58.594Z,52.15
2023-02-09T17:35:52.963Z,74.28
2023-02-09T17:38:20.704Z,61.42
2023-02-09T17:40:48.125Z,67.13
2023-02-09T17:43:15.346Z,94.25
2023-02-09T17:45:48.197Z,114.13
2023-02-09T17:48:16.597Z,126.40
2023-02-09T17:50:48.740Z,133.60
2023-02-09T17:53:19.661Z,127.80
2023-02-09T17:55:46.975Z,128.55
2023-02-09T17:58:15.511Z,120.40
2023-02-09T18:00:44.009Z,110.82
2023-02-09T18:03:12.230Z,107.25
2023-02-09T18:05:41.270Z,145.85
2023-02-09T18:08:08.918Z,133.13
2023-02-09T18:10:37.835Z,130.05
2023-02-09T18:13:05.445Z,124.75
2023-02-09T18:15:35.665Z,120.50
2023-02-09T18:18:03.143Z,115.53
2023-02-09T18:20:31.654Z,120.97
2023-02-09T18:22:59.773Z,136.17
2023-02-09T18:25:28.103Z,117.63
2023-02-09T18:27:57.001Z,130.20
2023-02-09T18:30:25.796Z,133.55
2023-02-09T18:32:53.280Z,101.07
2023-02-09T18:35:21.263Z,100.77
2023-02-09T18:37:49.058Z,77.47
2023-02-09T18:40:16.710Z,69.45
2023-02-09T18:42:46.607Z,57.78
2023-02-09T18:45:16.827Z,130.32
2023-02-09T18:47:44.288Z,63.83
2023-02-09T18:50:13.098Z,73.45
2023-02-09T18:52:47.432Z,74.28
2023-02-09T18:55:15.245Z,170.07
2023-02-09T18:57:42.370Z,74.88
2023-02-09T19:00:10.939Z,122.30
2023-02-09T19:02:40.089Z,104.15
2023-02-09T19:05:07.512Z,84.00
2023-02-09T19:07:36.408Z,70.32
2023-02-09T19:10:04.289Z,68.65
2023-02-09T19:12:31.268Z,71.00
2023-02-09T19:14:58.837Z,85.55
2023-02-09T19:17:26.218Z,88.32
2023-02-09T19:19:57.251Z,92.68
2023-02-09T19:22:24.935Z,102.60
2023-02-09T19:24:54.506Z,94.10
2023-02-09T19:27:21.680Z,99.45
2023-02-09T19:29:52.427Z,94.45
2023-02-09T19:32:19.959Z,91.05
2023-02-09T19:34:49.934Z,83.68
2023-02-09T19:37:19.914Z,77.70
2023-02-09T19:40:00.467Z,80.70
2023-02-09T19:42:27.832Z,87.43
2023-02-09T19:44:55.258Z,76.53
2023-02-09T19:47:28.539Z,159.02
2023-02-09T19:49:56.831Z,101.93
2023-02-09T19:52:25.714Z,97.43
2023-02-09T19:54:53.656Z,78.10
2023-02-09T19:57:22.069Z,67.50
2023-02-09T19:59:49.736Z,63.42
2023-02-09T20:02:17.604Z,59.87
2023-02-09T20:04:46.062Z,63.95
2023-02-09T20:07:13.859Z,55.83
2023-02-09T20:09:42.419Z,63.90
2023-02-09T20:12:09.788Z,65.38
2023-02-09T20:14:37.005Z,69.47
2023-02-09T20:17:04.981Z,67.32
2023-02-09T20:19:36.191Z,59.40
2023-02-09T20:22:03.618Z,58.53
2023-02-09T20:24:31.175Z,61.65
2023-02-09T20:26:59.998Z,55.13
2023-02-09T20:29:27.395Z,56.05
2023-02-09T20:31:54.553Z,57.53
2023-02-09T20:34:22.251Z,76.63
2023-02-09T20:36:50.809Z,64.50
2023-02-09T20:39:18.268Z,57.40
2023-02-09T20:42:06.282Z,47.15
2023-02-09T20:44:57.868Z,42.63
2023-02-09T20:47:26.307Z,45.63
2023-02-09T20:49:56.324Z,42.33
2023-02-09T20:52:23.646Z,42.33
2023-02-09T20:54:50.999Z,43.20
2023-02-09T20:57:18.352Z,42.45
2023-02-09T20:59:46.942Z,38.20
2023-02-09T21:02:16.084Z,47.85
2023-02-09T21:04:43.409Z,42.07
2023-02-09T21:07:10.626Z,49.20
2023-02-09T21:09:38.133Z,52.83
2023-02-09T21:12:05.315Z,57.78
2023-02-09T21:14:42.046Z,59.13
2023-02-09T21:17:11.766Z,51.00
2023-02-09T21:19:38.896Z,55.42
2023-02-09T21:22:06.223Z,54.95
2023-02-09T21:24:33.289Z,55.53
2023-02-09T21:27:02.902Z,59.55
2023-02-09T21:29:30.173Z,61.73
2023-02-09T21:32:00.658Z,60.15
2023-02-09T21:34:29.408Z,61.55
2023-02-09T21:36:56.422Z,52.95
2023-02-09T21:39:23.467Z,51.38
2023-02-09T21:42:09.552Z,51.90
2023-02-09T21:44:37.162Z,60.28
2023-02-09T21:47:04.308Z,57.28
2023-02-09T21:49:32.892Z,62.25
2023-02-09T21:52:00.093Z,54.90
2023-02-09T21:54:28.774Z,54.83
2023-02-09T21:56:56.036Z,50.40
2023-02-09T21:59:23.109Z,46.25
2023-02-09T22:01:50.115Z,47.17
2023-02-09T22:04:17.167Z,52.40
2023-02-09T22:06:47.377Z,52.97
2023-02-09T22:09:14.584Z,32.50
2023-02-09T22:15:00.794Z,51.25
2023-02-09T22:17:27.821Z,50.60
2023-02-09T22:19:54.795Z,52.37
2023-02-09T22:22:23.348Z,45.00
2023-02-09T22:24:50.493Z,46.72
2023-02-09T22:27:17.477Z,40.83
2023-02-09T22:29:45.855Z,40.30
2023-02-09T22:32:12.849Z,47.43
2023-02-09T22:34:40.101Z,45.45
2023-02-09T22:37:07.331Z,40.15
2023-02-09T22:39:35.830Z,47.80
2023-02-09T22:42:03.094Z,40.35
2023-02-09T22:44:30.584Z,36.60
2023-02-09T22:46:57.532Z,46.42
2023-02-09T22:49:24.535Z,38.97
2023-02-09T22:51:51.895Z,52.55
2023-02-09T22:54:20.102Z,60.75
2023-02-09T22:56:48.850Z,60.33
2023-02-09T22:59:16.361Z,66.90
2023-02-09T23:01:44.021Z,72.50
2023-02-09T23:04:11.223Z,55.75
2023-02-09T23:06:38.401Z,68.93
2023-02-09T23:09:07.315Z,69.93
2023-02-09T23:11:34.807Z,62.10
2023-02-09T23:14:11.347Z,49.80
2023-02-09T23:16:39.569Z,61.75
2023-02-09T23:19:07.690Z,69.30
2023-02-09T23:21:36.304Z,68.00
2023-02-09T23:24:03.800Z,60.90
2023-02-09T23:26:31.220Z,54.25
2023-02-09T23:28:59.508Z,51.85
2023-02-09T23:31:28.348Z,43.28
2023-02-09T23:33:55.597Z,44.07
2023-02-09T23:36:23.473Z,51.08
2023-02-09T23:38:52.646Z,40.40
2023-02-09T23:41:19.805Z,57.55
2023-02-09T23:43:46.844Z,41.53
2023-02-09T23:46:14.718Z,42.10
2023-02-09T23:48:44.645Z,46.75
2023-02-09T23:51:13.800Z,40.03
2023-02-09T23:53:40.923Z,39.15
2023-02-09T23:56:08.318Z,43.60
2023-02-09T23:58:36.598Z,41.23
